Time;durP1;ratioP1;P1;durP2;ratioP2;P2;SDS_P1;SDS_P2;PMS_P1;PMS_P2;Temp;Humidity;BMP_temperature;BMP_pressure;BME280_temperature;BME280_humidity;BME280_pressure;Samples;Min_cycle;Max_cycle;Signal;HPM_P1;HPM_P2
2024/01/10 00:00:59;;;;;;;3.25;1.85;;;;;;;18.62;31.59;102991.16;4983554;28;100007;-83
2024/01/10 00:03:25;;;;;;;2.70;1.55;;;;;;;18.61;31.70;102995.56;4987954;28;97395;-84
2024/01/10 00:05:50;;;;;;;2.70;1.42;;;;;;;18.61;32.10;102990.25;4986690;28;96842;-83
2024/01/10 00:08:16;;;;;;;2.40;1.60;;;;;;;18.61;31.88;102981.47;4969764;28;115906;-83
2024/01/10 00:10:41;;;;;;;3.15;1.77;;;;;;;18.61;31.96;102990.25;4979506;28;124749;-83
2024/01/10 00:13:06;;;;;;;2.88;1.55;;;;;;;18.61;32.07;102982.34;4986049;28;100108;-83
2024/01/10 00:15:32;;;;;;;3.60;1.30;;;;;;;18.61;31.82;102979.69;4980805;28;116858;-84
2024/01/10 00:17:57;;;;;;;2.90;1.73;;;;;;;18.62;32.03;102980.56;4990744;28;98650;-84
2024/01/10 00:20:22;;;;;;;2.53;1.17;;;;;;;18.61;32.19;102973.53;4988077;28;112654;-83
2024/01/10 00:22:48;;;;;;;2.92;1.40;;;;;;;18.60;32.11;102974.38;4988697;28;105354;-84
2024/01/10 00:25:13;;;;;;;2.20;1.33;;;;;;;18.60;32.05;102975.25;4989707;28;96885;-84
2024/01/10 00:27:38;;;;;;;3.30;1.73;;;;;;;18.61;31.85;102970.88;4978045;28;115538;-84
2024/01/10 00:30:05;;;;;;;2.53;1.67;;;;;;;18.61;31.90;102970.88;4983604;28;122925;-84
2024/01/10 00:32:30;;;;;;;3.45;1.80;;;;;;;18.61;32.07;102970.88;4983639;28;99172;-83
2024/01/10 00:34:56;;;;;;;3.13;1.27;;;;;;;18.61;31.86;102960.31;4990036;28;96886;-83
2024/01/10 00:37:21;;;;;;;2.60;1.05;;;;;;;18.60;32.01;102956.75;4983549;28;117248;-83
2024/01/10 00:39:46;;;;;;;2.63;1.20;;;;;;;18.61;32.21;102963.84;4991694;28;126367;-84
2024/01/10 00:42:12;;;;;;;2.95;1.65;;;;;;;18.61;32.03;102960.31;4982684;28;97980;-84
2024/01/10 00:44:38;;;;;;;3.63;1.80;;;;;;;18.61;32.01;102962.97;4985041;28;116771;-83
2024/01/10 00:47:03;;;;;;;2.60;1.83;;;;;;;18.61;32.25;102960.31;4993756;28;96816;-83
2024/01/10 00:49:29;;;;;;;3.00;1.85;;;;;;;18.60;32.07;102967.34;4989198;28;118209;-83
2024/01/10 00:51:54;;;;;;;3.05;1.40;;;;;;;18.60;32.03;102964.69;4980516;28;97485;-84
2024/01/10 00:54:20;;;;;;;2.53;1.38;;;;;;;18.60;32.12;102963.81;4987476;28;97297;-84
2024/01/10 00:56:45;;;;;;;2.80;1.38;;;;;;;18.60;32.14;102955.88;4995940;28;97073;-84
2024/01/10 00:59:10;;;;;;;2.95;1.10;;;;;;;18.60;32.18;102948.81;4988200;28;102946;-84
2024/01/10 01:01:36;;;;;;;4.00;1.77;;;;;;;18.60;31.88;102953.25;4990349;28;98223;-83
2024/01/10 01:04:02;;;;;;;2.75;1.50;;;;;;;18.60;32.34;102950.59;4976688;28;96863;-84
2024/01/10 01:06:27;;;;;;;2.67;1.60;;;;;;;18.59;32.01;102944.44;4973199;28;97053;-84
2024/01/10 01:08:52;;;;;;;3.20;1.35;;;;;;;18.58;31.91;102950.56;4979378;28;127243;-84
2024/01/10 01:11:18;;;;;;;2.75;1.23;;;;;;;18.59;32.24;102943.53;4992153;28;103487;-83
2024/01/10 01:13:43;;;;;;;2.15;1.50;;;;;;;18.58;32.22;102945.28;4988424;28;116271;-84
2024/01/10 01:16:10;;;;;;;2.25;1.33;;;;;;;18.58;32.26;102955.84;4991943;28;99144;-84
2024/01/10 01:18:35;;;;;;;2.78;1.73;;;;;;;18.58;32.22;102953.22;5000114;28;96754;-83
2024/01/10 01:21:02;;;;;;;2.80;1.60;;;;;;;18.59;32.51;102948.81;4981040;28;97499;-84
2024/01/10 01:23:27;;;;;;;3.10;1.73;;;;;;;18.59;32.39;102956.72;5004250;28;99283;-84
2024/01/10 01:25:53;;;;;;;2.58;1.33;;;;;;;18.59;32.38;102954.09;4990600;28;96815;-84
2024/01/10 01:28:18;;;;;;;2.17;1.27;;;;;;;18.57;32.18;102948.81;4989118;28;99677;-83
2024/01/10 01:30:44;;;;;;;2.90;1.45;;;;;;;18.59;32.29;102946.16;5004635;28;99062;-83
2024/01/10 01:33:09;;;;;;;2.88;1.50;;;;;;;18.58;32.18;102944.41;4989708;28;97183;-83
2024/01/10 01:35:34;;;;;;;2.55;1.75;;;;;;;18.58;32.27;102942.66;4993090;28;97373;-84
2024/01/10 01:38:00;;;;;;;2.95;1.33;;;;;;;18.58;32.15;102949.69;4989549;28;97592;-83
2024/01/10 01:40:25;;;;;;;2.45;1.20;;;;;;;18.57;32.29;102947.91;4989045;28;99160;-84
2024/01/10 01:42:51;;;;;;;2.58;1.63;;;;;;;18.58;32.39;102940.00;5004136;28;96966;-83
2024/01/10 01:45:16;;;;;;;2.60;1.85;;;;;;;18.57;32.25;102943.53;4988979;28;98122;-83
2024/01/10 01:47:42;;;;;;;3.72;1.25;;;;;;;18.57;32.25;102942.63;4988144;28;97559;-84
2024/01/10 01:50:08;;;;;;;2.92;1.80;;;;;;;18.57;32.43;102942.63;5007634;28;96823;-84
2024/01/10 01:52:34;;;;;;;3.17;1.20;;;;;;;18.57;32.29;102937.34;4977463;28;97468;-84
2024/01/10 01:55:01;;;;;;;3.00;1.77;;;;;;;18.57;32.47;102938.25;4961974;28;96955;-84
2024/01/10 01:57:26;;;;;;;2.50;1.23;;;;;;;18.57;32.45;102938.25;4983780;28;97195;-84
2024/01/10 01:59:51;;;;;;;2.55;1.25;;;;;;;18.57;32.46;102930.31;4984135;28;96761;-84
2024/01/10 02:02:17;;;;;;;2.55;1.50;;;;;;;18.57;32.48;102934.69;4988284;28;97249;-83
2024/01/10 02:04:45;;;;;;;3.17;1.20;;;;;;;18.56;32.39;102927.66;4994226;28;96895;-83
2024/01/10 02:07:10;;;;;;;2.38;1.10;;;;;;;18.56;32.44;102935.56;4983443;28;100110;-83
2024/01/10 02:09:35;;;;;;;2.10;1.25;;;;;;;18.56;32.37;102925.00;5014354;28;127864;-84
2024/01/10 02:12:01;;;;;;;2.55;1.30;;;;;;;18.57;32.55;102924.13;4963451;28;97505;-83
2024/01/10 02:14:27;;;;;;;2.72;1.83;;;;;;;18.55;32.33;102921.44;5012790;28;97444;-83
2024/01/10 02:16:54;;;;;;;2.33;1.20;;;;;;;18.56;32.42;102925.00;4999870;28;97678;-83
2024/01/10 02:19:21;;;;;;;2.75;1.15;;;;;;;18.57;32.32;102929.41;4984076;28;97885;-84
2024/01/10 02:21:46;;;;;;;2.78;1.10;;;;;;;18.56;32.21;102928.53;5008408;27;96825;-84
2024/01/10 02:24:12;;;;;;;2.67;1.48;;;;;;;18.55;32.53;102918.81;4985677;28;96921;-83
2024/01/10 02:26:38;;;;;;;3.55;1.88;;;;;;;18.55;32.26;102932.03;4979854;28;97313;-84
2024/01/10 02:29:04;;;;;;;2.40;1.48;;;;;;;18.55;32.55;102920.56;4971208;28;97806;-83
2024/01/10 02:31:29;;;;;;;2.55;1.17;;;;;;;18.54;32.34;102922.34;5015425;28;115451;-83
2024/01/10 02:33:54;;;;;;;2.33;1.48;;;;;;;18.55;32.48;102920.56;4987952;28;110511;-83
2024/01/10 02:36:20;;;;;;;3.03;1.13;;;;;;;18.54;32.67;102922.34;4987139;28;97953;-83
2024/01/10 02:38:45;;;;;;;1.85;1.13;;;;;;;18.54;32.22;102922.34;4982141;28;125408;-83
2024/01/10 02:41:10;;;;;;;2.72;1.98;;;;;;;18.56;32.43;102917.06;4966868;28;103118;-84
2024/01/10 02:43:36;;;;;;;2.20;1.70;;;;;;;18.55;32.51;102915.28;4961109;28;96811;-83
2024/01/10 02:46:01;;;;;;;1.98;1.05;;;;;;;18.55;32.48;102923.22;4969349;28;98855;-83
2024/01/10 02:48:27;;;;;;;2.47;1.27;;;;;;;18.55;32.56;102920.56;4982992;28;107247;-83
2024/01/10 02:50:54;;;;;;;2.60;1.85;;;;;;;18.54;32.54;102918.78;4984128;28;97409;-83
2024/01/10 02:53:19;;;;;;;2.60;1.45;;;;;;;18.53;32.56;102925.84;4989746;28;96784;-83
2024/01/10 02:55:46;;;;;;;2.55;1.20;;;;;;;18.53;32.50;102925.84;4989525;28;125882;-84
2024/01/10 02:58:11;;;;;;;3.03;1.77;;;;;;;18.54;32.50;102932.00;4985740;28;97651;-83
2024/01/10 03:00:37;;;;;;;2.58;1.83;;;;;;;18.53;32.30;102936.41;4966716;28;96933;-84
2024/01/10 03:03:03;;;;;;;2.50;1.20;;;;;;;18.53;32.61;102923.19;4987529;28;98988;-83
2024/01/10 03:05:29;;;;;;;3.92;1.80;;;;;;;18.54;32.24;102918.78;4980774;28;98881;-83
2024/01/10 03:07:54;;;;;;;2.58;1.42;;;;;;;18.53;32.34;102917.91;5019443;28;97427;-83
2024/01/10 03:10:19;;;;;;;2.10;1.30;;;;;;;18.53;32.41;102915.25;4984496;28;96932;-83
2024/01/10 03:12:45;;;;;;;2.78;1.35;;;;;;;18.52;32.65;102917.88;4982395;28;98419;-84
2024/01/10 03:15:10;;;;;;;2.38;1.83;;;;;;;18.53;32.41;102911.75;4987867;28;99408;-83
2024/01/10 03:17:35;;;;;;;2.58;1.67;;;;;;;18.53;32.43;102917.03;4978341;28;96936;-84
2024/01/10 03:20:03;;;;;;;2.88;1.67;;;;;;;18.53;32.58;102909.09;4964201;28;96889;-83
2024/01/10 03:22:30;;;;;;;2.67;1.58;;;;;;;18.52;32.36;102908.22;5002042;28;97811;-83
2024/01/10 03:24:55;;;;;;;5.55;1.20;;;;;;;18.53;32.33;102901.19;4986924;28;98847;-84
2024/01/10 03:27:21;;;;;;;2.65;1.58;;;;;;;18.52;32.47;102900.28;4983082;28;99903;-83
2024/01/10 03:29:46;;;;;;;2.55;1.67;;;;;;;18.52;32.36;102902.03;4975343;28;97121;-83
2024/01/10 03:32:11;;;;;;;2.75;1.60;;;;;;;18.52;32.56;102904.66;4987408;28;117800;-83
2024/01/10 03:34:37;;;;;;;2.13;1.30;;;;;;;18.51;32.54;102893.22;4978080;28;106678;-84
2024/01/10 03:37:02;;;;;;;2.90;1.92;;;;;;;18.51;32.73;102884.41;4980476;28;96903;-83
2024/01/10 03:39:28;;;;;;;2.58;1.25;;;;;;;18.51;32.42;102887.94;5001886;28;96839;-83
2024/01/10 03:41:53;;;;;;;2.25;1.00;;;;;;;18.51;32.53;102884.41;5006555;28;112432;-83
2024/01/10 03:44:18;;;;;;;2.95;1.65;;;;;;;18.51;32.46;102881.78;4983709;28;103803;-83
2024/01/10 03:46:44;;;;;;;2.97;1.88;;;;;;;18.51;32.44;102887.94;4986633;28;126303;-83
2024/01/10 03:49:10;;;;;;;2.53;1.17;;;;;;;18.51;32.65;102881.78;4974246;28;96858;-83
2024/01/10 03:51:35;;;;;;;3.05;1.42;;;;;;;18.51;32.62;102885.28;4971552;28;116352;-84
2024/01/10 03:54:00;;;;;;;2.75;1.33;;;;;;;18.51;32.41;102884.41;5003335;28;97894;-83
2024/01/10 03:56:26;;;;;;;2.50;1.40;;;;;;;18.51;32.50;102881.78;4989614;28;105606;-83
2024/01/10 03:58:51;;;;;;;2.75;1.02;;;;;;;18.50;32.51;102883.50;4988145;28;97287;-83
2024/01/10 04:01:17;;;;;;;3.47;1.73;;;;;;;18.51;32.69;102881.78;4984578;28;96707;-84
2024/01/10 04:03:44;;;;;;;2.95;2.00;;;;;;;18.51;32.66;102879.13;5003158;28;97761;-83
2024/01/10 04:06:09;;;;;;;2.53;1.70;;;;;;;18.50;32.59;102874.69;4986552;28;96872;-83
2024/01/10 04:08:35;;;;;;;2.97;2.00;;;;;;;18.50;32.43;102877.34;4995519;28;97164;-84
2024/01/10 04:11:03;;;;;;;2.30;1.67;;;;;;;18.50;32.45;102866.78;4978484;28;96997;-84
2024/01/10 04:13:28;;;;;;;2.70;1.70;;;;;;;18.51;32.46;102873.84;5015733;27;97483;-84
2024/01/10 04:15:53;;;;;;;2.35;1.13;;;;;;;18.49;32.54;102865.91;4984120;28;111060;-84
2024/01/10 04:18:19;;;;;;;2.53;1.25;;;;;;;18.50;32.49;102866.78;4982338;28;114608;-83
2024/01/10 04:20:44;;;;;;;2.58;1.73;;;;;;;18.50;32.58;102864.13;4970662;28;97025;-84
2024/01/10 04:23:10;;;;;;;2.28;1.42;;;;;;;18.50;32.52;102858.84;4985001;28;98305;-83
2024/01/10 04:25:35;;;;;;;3.25;1.67;;;;;;;18.49;32.73;102854.44;4987874;28;97539;-84
2024/01/10 04:28:01;;;;;;;2.08;1.25;;;;;;;18.49;32.85;102857.97;4972760;28;112873;-84
2024/01/10 04:30:27;;;;;;;2.15;1.60;;;;;;;18.49;32.63;102849.16;5003600;27;96858;-84
2024/01/10 04:32:52;;;;;;;2.45;1.33;;;;;;;18.48;32.49;102842.97;4987309;28;97862;-83
2024/01/10 04:35:17;;;;;;;2.35;1.45;;;;;;;18.49;32.65;102846.53;4987613;28;98696;-84
2024/01/10 04:37:43;;;;;;;2.95;1.80;;;;;;;18.48;32.80;102842.97;4978200;28;109152;-83
2024/01/10 04:40:08;;;;;;;3.22;1.10;;;;;;;18.48;32.52;102848.25;5004905;28;112444;-84
2024/01/10 04:42:34;;;;;;;3.63;1.17;;;;;;;18.48;32.71;102850.91;4988577;28;98705;-83
2024/01/10 04:44:59;;;;;;;2.45;1.15;;;;;;;18.48;32.49;102855.31;4988287;28;116876;-84
2024/01/10 04:47:25;;;;;;;2.90;1.48;;;;;;;18.48;32.37;102848.25;4989492;28;114196;-83
2024/01/10 04:49:50;;;;;;;3.17;1.23;;;;;;;18.48;32.67;102852.66;4977924;28;105719;-83
2024/01/10 04:52:15;;;;;;;2.40;1.30;;;;;;;18.46;32.48;102853.50;4985233;28;97959;-83
2024/01/10 04:54:41;;;;;;;2.08;1.50;;;;;;;18.48;32.78;102853.53;4974764;28;117285;-83
2024/01/10 04:57:07;;;;;;;2.50;1.33;;;;;;;18.48;32.21;102856.19;4975718;28;115209;-83
2024/01/10 04:59:32;;;;;;;2.63;1.60;;;;;;;18.46;32.67;102845.59;4957890;28;96764;-83
2024/01/10 05:01:58;;;;;;;2.95;1.20;;;;;;;18.45;32.46;102854.41;4998456;28;99459;-84
2024/01/10 05:04:23;;;;;;;2.50;1.33;;;;;;;18.46;33.01;102857.94;4983976;28;97372;-84
2024/01/10 05:06:49;;;;;;;2.80;1.50;;;;;;;18.48;32.84;102857.94;5018968;28;118584;-84
2024/01/10 05:09:14;;;;;;;2.50;1.50;;;;;;;18.46;32.84;102866.72;4974550;28;97013;-83
2024/01/10 05:11:40;;;;;;;2.13;1.60;;;;;;;18.45;32.51;102862.34;5015979;28;99506;-84
2024/01/10 05:14:05;;;;;;;2.55;1.80;;;;;;;18.46;32.78;102871.13;4987526;28;99071;-83
2024/01/10 05:16:31;;;;;;;2.38;1.48;;;;;;;18.44;32.68;102859.66;4971582;28;116572;-83
2024/01/10 05:18:57;;;;;;;2.90;1.67;;;;;;;18.46;32.66;102868.50;4978777;28;97506;-83
2024/01/10 05:21:22;;;;;;;2.83;1.77;;;;;;;18.45;32.71;102867.63;5001880;28;98930;-83
2024/01/10 05:23:48;;;;;;;2.63;1.90;;;;;;;18.46;32.50;102860.56;5014227;27;110100;-83
2024/01/10 05:26:14;;;;;;;2.45;1.60;;;;;;;18.46;32.53;102863.22;5001566;28;97231;-83
2024/01/10 05:28:39;;;;;;;2.90;1.85;;;;;;;18.42;32.79;102851.72;4984802;28;96885;-83
2024/01/10 05:31:05;;;;;;;2.10;1.27;;;;;;;18.47;32.30;102862.34;4979664;28;99710;-83
2024/01/10 05:33:30;;;;;;;2.40;1.40;;;;;;;18.45;32.54;102854.41;4986989;28;96766;-83
2024/01/10 05:35:56;;;;;;;2.17;1.55;;;;;;;18.45;32.34;102849.13;5002247;28;96881;-83
2024/01/10 05:38:21;;;;;;;4.18;1.65;;;;;;;18.44;32.59;102851.75;4970841;28;96962;-84
2024/01/10 05:40:47;;;;;;;2.35;1.52;;;;;;;18.45;32.65;102856.16;4979619;28;99921;-84
2024/01/10 05:43:12;;;;;;;3.08;1.85;;;;;;;18.43;32.51;102845.56;4999918;28;98987;-83
2024/01/10 05:45:38;;;;;;;3.05;1.70;;;;;;;18.44;32.65;102854.38;4985461;28;97237;-83
2024/01/10 05:48:04;;;;;;;2.70;1.35;;;;;;;18.45;32.75;102849.13;5001968;28;97185;-83
2024/01/10 05:50:30;;;;;;;2.33;1.67;;;;;;;18.43;32.48;102836.75;4987165;28;99869;-83
2024/01/10 05:52:55;;;;;;;2.58;1.58;;;;;;;18.43;32.85;102845.56;4990132;28;96798;-83
2024/01/10 05:55:20;;;;;;;2.90;1.90;;;;;;;18.44;32.75;102841.16;4976545;28;96795;-84
2024/01/10 05:57:46;;;;;;;2.90;1.73;;;;;;;18.43;32.75;102836.75;4964077;28;97255;-83
2024/01/10 06:00:12;;;;;;;2.40;1.67;;;;;;;18.42;32.69;102843.78;4998282;28;99975;-83
2024/01/10 06:02:41;;;;;;;2.72;1.63;;;;;;;18.43;32.69;102847.31;4984507;28;98001;-83
2024/01/10 06:05:10;;;;;;;3.38;1.40;;;;;;;18.42;32.74;102843.78;4965926;28;97780;-85
2024/01/10 06:07:37;;;;;;;2.83;1.52;;;;;;;18.43;32.60;102853.50;4981232;28;96935;-83
2024/01/10 06:10:02;;;;;;;2.65;1.23;;;;;;;18.43;32.54;102856.16;4987218;28;98814;-84
2024/01/10 06:12:28;;;;;;;3.30;1.83;;;;;;;18.42;32.50;102842.91;4987936;28;97191;-83
2024/01/10 06:14:54;;;;;;;2.50;1.42;;;;;;;18.42;32.61;102851.72;5006573;28;96803;-84
2024/01/10 06:17:19;;;;;;;2.83;1.73;;;;;;;18.42;32.56;102841.16;5001890;28;97437;-83
2024/01/10 06:19:45;;;;;;;2.55;1.45;;;;;;;18.42;32.68;102851.72;4971723;28;98418;-83
2024/01/10 06:22:13;;;;;;;2.42;1.67;;;;;;;18.42;32.88;102846.44;4987907;28;100029;-85
2024/01/10 06:24:40;;;;;;;2.30;1.50;;;;;;;18.41;32.48;102849.97;5014382;28;96847;-84
2024/01/10 06:27:06;;;;;;;3.03;1.85;;;;;;;18.42;32.63;102851.72;4987958;28;98093;-84
2024/01/10 06:29:33;;;;;;;2.30;1.15;;;;;;;18.41;32.54;102849.97;4993751;28;96923;-84
2024/01/10 06:32:01;;;;;;;2.35;1.00;;;;;;;18.41;32.81;102847.31;4992477;28;98565;-84
2024/01/10 06:34:26;;;;;;;2.72;1.85;;;;;;;18.41;32.75;102836.75;4975161;28;96760;-84
2024/01/10 06:36:52;;;;;;;2.78;1.75;;;;;;;18.42;32.67;102841.16;4991039;28;97107;-84
2024/01/10 06:39:19;;;;;;;2.15;1.33;;;;;;;18.41;32.54;102833.19;4972588;28;96918;-84
2024/01/10 06:41:47;;;;;;;2.85;1.67;;;;;;;18.41;32.72;102834.13;4984657;28;97282;-84
2024/01/10 06:44:12;;;;;;;2.65;1.25;;;;;;;18.40;32.70;102834.09;4987370;28;97330;-83
2024/01/10 06:46:38;;;;;;;2.53;1.95;;;;;;;18.41;32.62;102827.91;4988952;28;97201;-83
2024/01/10 06:49:03;;;;;;;2.53;1.10;;;;;;;18.40;32.75;102837.59;4992234;28;98506;-84
2024/01/10 06:51:29;;;;;;;3.03;1.85;;;;;;;18.40;32.56;102845.53;4984210;28;103665;-84
2024/01/10 06:54:02;;;;;;;3.30;2.00;;;;;;;18.41;32.60;102842.03;4990567;28;104240;-84
2024/01/10 06:56:28;;;;;;;2.85;1.95;;;;;;;18.40;32.80;102848.19;4987515;28;96778;-84
2024/01/10 06:58:54;;;;;;;3.30;1.35;;;;;;;18.40;32.76;102852.59;4990444;28;98917;-84
2024/01/10 07:01:21;;;;;;;2.65;1.70;;;;;;;18.39;32.58;102849.03;4973482;28;96822;-84
2024/01/10 07:03:47;;;;;;;3.55;1.48;;;;;;;18.39;32.39;102846.38;4975925;28;96891;-84
2024/01/10 07:06:14;;;;;;;2.17;1.10;;;;;;;18.39;32.67;102835.81;4983643;28;97442;-84
2024/01/10 07:08:42;;;;;;;2.72;1.80;;;;;;;18.40;32.56;102834.09;4994128;28;97996;-84
2024/01/10 07:11:07;;;;;;;2.75;1.80;;;;;;;18.40;32.46;102828.81;4989875;28;97939;-84
2024/01/10 07:13:33;;;;;;;3.67;1.80;;;;;;;18.39;32.53;102832.31;4994134;28;96788;-84
2024/01/10 07:16:01;;;;;;;2.80;1.52;;;;;;;18.38;32.67;102838.47;4979090;28;114457;-83
2024/01/10 07:18:33;;;;;;;3.25;1.65;;;;;;;18.37;32.43;102850.78;4988413;28;97850;-84
2024/01/10 07:20:58;;;;;;;3.28;1.95;;;;;;;18.37;32.61;102853.41;5007855;27;97681;-84
2024/01/10 07:23:24;;;;;;;3.03;2.00;;;;;;;18.38;32.75;102865.78;4999896;28;96805;-84
2024/01/10 07:25:49;;;;;;;3.70;1.27;;;;;;;18.39;32.77;102853.44;4994868;28;115139;-84
2024/01/10 07:28:16;;;;;;;3.22;1.63;;;;;;;18.37;32.60;102866.63;4976817;28;96873;-84
2024/01/10 07:30:41;;;;;;;2.40;1.45;;;;;;;18.38;32.72;102871.06;4990311;28;96906;-83
2024/01/10 07:33:07;;;;;;;3.55;1.33;;;;;;;18.37;32.56;102869.25;4987060;28;100938;-83
2024/01/10 07:35:33;;;;;;;2.92;1.45;;;;;;;18.38;32.64;102870.19;4989458;28;97194;-83
2024/01/10 07:37:58;;;;;;;2.83;1.88;;;;;;;18.37;32.49;102869.25;4980785;28;100265;-83
2024/01/10 07:40:24;;;;;;;3.13;1.65;;;;;;;18.37;32.50;102866.63;4988789;28;97509;-83
2024/01/10 07:42:49;;;;;;;3.05;1.40;;;;;;;18.37;32.50;102863.09;4984566;28;97214;-82
2024/01/10 07:45:14;;;;;;;2.17;1.23;;;;;;;18.37;32.67;102856.06;4999664;28;96988;-82
2024/01/10 07:47:40;;;;;;;2.60;1.33;;;;;;;18.37;32.45;102863.09;4999215;28;97754;-82
2024/01/10 07:50:10;;;;;;;3.10;1.50;;;;;;;18.37;32.44;102858.69;4981542;28;97750;-83
2024/01/10 07:52:36;;;;;;;3.40;2.05;;;;;;;18.37;32.40;102852.53;4982436;28;96761;-82
2024/01/10 07:55:04;;;;;;;2.85;1.42;;;;;;;18.36;32.40;102838.44;4983687;28;96893;-82
2024/01/10 07:57:30;;;;;;;2.50;1.45;;;;;;;18.37;32.52;102842.84;4973252;28;98222;-83
2024/01/10 07:59:56;;;;;;;3.13;2.25;;;;;;;18.37;32.63;102841.97;4986450;28;98359;-82
2024/01/10 08:02:21;;;;;;;3.42;2.22;;;;;;;18.36;32.34;102845.47;4981895;28;107259;-83
2024/01/10 08:04:47;;;;;;;3.35;1.90;;;;;;;18.37;32.55;102841.97;4984962;28;96995;-82
2024/01/10 08:07:13;;;;;;;3.25;2.30;;;;;;;18.37;32.57;102849.91;5001547;28;97802;-82
2024/01/10 08:09:38;;;;;;;3.10;1.88;;;;;;;18.37;32.56;102855.19;4980311;28;98543;-83
2024/01/10 08:12:04;;;;;;;3.13;1.80;;;;;;;18.37;32.60;102848.13;4979849;28;114383;-82
2024/01/10 08:14:29;;;;;;;3.90;1.45;;;;;;;18.37;32.45;102845.50;4985711;28;97336;-82
2024/01/10 08:16:57;;;;;;;2.75;2.05;;;;;;;18.36;32.55;102848.09;4982571;28;127174;-82
2024/01/10 08:19:24;;;;;;;3.83;1.98;;;;;;;18.37;32.44;102860.47;4965116;28;98506;-82
2024/01/10 08:21:50;;;;;;;3.25;1.95;;;;;;;18.36;32.50;102851.66;4962558;28;96895;-83
2024/01/10 08:24:15;;;;;;;2.95;1.35;;;;;;;18.37;32.64;102856.06;4997611;28;97315;-83
2024/01/10 08:26:41;;;;;;;2.80;1.60;;;;;;;18.37;32.52;102855.19;4995056;28;98971;-82
2024/01/10 08:29:06;;;;;;;3.38;1.33;;;;;;;18.37;32.63;102842.84;4987875;28;126646;-82
2024/01/10 08:31:32;;;;;;;3.78;2.25;;;;;;;18.37;32.52;102844.59;4997244;28;97835;-82
2024/01/10 08:33:57;;;;;;;3.58;1.95;;;;;;;18.37;32.64;102841.97;4988227;28;96743;-82
2024/01/10 08:36:24;;;;;;;2.45;1.48;;;;;;;18.37;32.27;102847.25;4988617;28;115406;-82
2024/01/10 08:38:50;;;;;;;3.08;1.85;;;;;;;18.37;32.36;102845.50;4994953;28;100209;-82
2024/01/10 08:41:16;;;;;;;3.28;1.55;;;;;;;18.37;32.65;102848.13;5022250;27;97223;-83
2024/01/10 08:43:41;;;;;;;2.90;1.35;;;;;;;18.37;32.40;102845.50;4974259;28;97412;-82
2024/01/10 08:46:08;;;;;;;2.88;1.55;;;;;;;18.38;32.25;102841.13;4977678;28;123338;-82
2024/01/10 08:48:33;;;;;;;3.05;1.55;;;;;;;18.38;32.65;102843.75;4985201;28;97337;-82
2024/01/10 08:50:59;;;;;;;2.58;1.30;;;;;;;18.38;32.55;102835.84;4986706;28;118326;-83
2024/01/10 08:53:25;;;;;;;3.80;1.70;;;;;;;18.38;32.65;102838.47;4980986;28;96865;-82
2024/01/10 08:55:50;;;;;;;4.05;1.73;;;;;;;18.37;32.67;102834.91;4977744;28;96747;-82
2024/01/10 08:58:16;;;;;;;3.30;1.50;;;;;;;18.38;32.33;102838.47;5010808;27;99249;-82
2024/01/10 09:00:41;;;;;;;2.80;1.67;;;;;;;18.39;32.61;102843.75;4978023;28;96710;-82
2024/01/10 09:03:07;;;;;;;3.85;1.65;;;;;;;18.37;32.33;102834.91;4971785;28;96873;-82
2024/01/10 09:05:32;;;;;;;6.00;2.13;;;;;;;18.38;32.47;102847.28;4977895;28;96846;-82
2024/01/10 09:07:58;;;;;;;2.95;1.45;;;;;;;18.37;32.50;102837.56;5000192;28;115612;-83
2024/01/10 09:10:24;;;;;;;3.75;2.00;;;;;;;18.38;32.51;102839.34;4987884;28;96813;-83
2024/01/10 09:12:49;;;;;;;2.75;1.33;;;;;;;18.37;32.37;102845.50;4987975;28;99010;-83
2024/01/10 09:15:15;;;;;;;2.30;1.60;;;;;;;18.37;32.63;102845.50;5003803;28;126246;-83
2024/01/10 09:17:44;;;;;;;2.85;1.42;;;;;;;18.38;32.34;102852.56;4982454;28;97857;-83
2024/01/10 09:20:10;;;;;;;;;;;;;;;18.31;32.40;102856.00;4978700;28;97761;-83
2024/01/10 09:22:35;;;;;;;3.47;1.60;;;;;;;18.32;32.69;102860.41;4965719;28;97026;-82
2024/01/10 09:25:04;;;;;;;3.13;1.55;;;;;;;18.35;32.48;102854.28;4985236;28;98089;-83
2024/01/10 09:27:35;;;;;;;3.75;2.22;;;;;;;18.35;32.56;102863.09;4983774;28;97800;-83
2024/01/10 09:30:02;;;;;;;3.53;1.52;;;;;;;18.35;32.28;102855.16;4988892;28;96832;-82
2024/01/10 09:32:31;;;;;;;2.85;1.83;;;;;;;18.36;32.56;102858.69;4984923;28;96922;-81
2024/01/10 09:34:56;;;;;;;3.38;1.80;;;;;;;18.36;32.41;102864.88;4985244;28;97744;-82
2024/01/10 09:37:23;;;;;;;4.28;1.98;;;;;;;18.37;32.31;102871.91;4988361;28;98432;-82
2024/01/10 09:39:48;;;;;;;3.05;1.90;;;;;;;18.37;32.18;102869.25;4986380;28;96984;-82
2024/01/10 09:42:14;;;;;;;4.68;2.17;;;;;;;18.38;32.56;102873.69;5004507;28;101960;-82
2024/01/10 09:44:40;;;;;;;3.85;1.95;;;;;;;18.39;32.51;102874.56;5016588;27;99036;-82
2024/01/10 09:47:06;;;;;;;4.63;1.98;;;;;;;18.39;32.67;102879.84;4991962;28;97334;-82
2024/01/10 09:49:33;;;;;;;4.22;1.63;;;;;;;18.39;32.10;102871.94;4984910;28;96805;-81
2024/01/10 09:52:01;;;;;;;3.25;1.95;;;;;;;18.39;32.50;102880.75;4964245;28;96752;-82
2024/01/10 09:54:29;;;;;;;4.18;1.80;;;;;;;18.39;32.29;102874.56;4989951;28;97889;-81
2024/01/10 09:56:55;;;;;;;3.10;1.45;;;;;;;18.40;32.47;102879.00;4991538;28;99051;-81
2024/01/10 09:59:21;;;;;;;4.00;1.80;;;;;;;18.40;32.48;102879.00;4995745;28;96916;-82
2024/01/10 10:01:46;;;;;;;3.58;1.55;;;;;;;18.40;32.33;102879.00;4990030;28;96882;-81
2024/01/10 10:04:12;;;;;;;2.85;1.70;;;;;;;18.40;32.26;102877.25;4985711;28;111292;-81
2024/01/10 10:06:38;;;;;;;3.72;2.05;;;;;;;18.40;32.17;102871.06;5002334;28;98574;-81
2024/01/10 10:09:04;;;;;;;3.65;1.80;;;;;;;18.40;32.20;102871.97;4984546;28;97626;-81
2024/01/10 10:11:30;;;;;;;2.75;1.52;;;;;;;18.41;32.34;102875.47;4993171;28;96855;-81
2024/01/10 10:13:55;;;;;;;4.30;1.60;;;;;;;18.41;32.55;102868.47;4987460;28;98675;-81
2024/01/10 10:16:25;;;;;;;3.15;1.83;;;;;;;18.41;32.41;102871.09;4986624;28;97532;-81
2024/01/10 10:18:57;;;;;;;3.60;1.90;;;;;;;18.40;32.40;102869.31;4984997;28;97038;-81
2024/01/10 10:21:25;;;;;;;3.50;2.08;;;;;;;18.40;32.23;102871.97;4986417;28;96851;-81
2024/01/10 10:24:00;;;;;;;3.95;2.13;;;;;;;18.41;32.32;102868.47;4969224;28;101199;-81
2024/01/10 10:26:27;;;;;;;3.05;1.92;;;;;;;18.41;32.28;102867.56;5001727;28;97457;-81
2024/01/10 10:28:53;;;;;;;2.80;1.60;;;;;;;18.42;32.42;102862.28;4986585;28;96757;-82
2024/01/10 10:31:19;;;;;;;3.50;1.80;;;;;;;18.42;32.13;102866.69;4969559;28;99217;-82
2024/01/10 10:33:45;;;;;;;3.67;1.63;;;;;;;18.42;32.31;102862.28;4987412;28;99199;-81
2024/01/10 10:36:13;;;;;;;3.58;1.63;;;;;;;18.42;32.22;102859.66;5010294;28;97721;-82
2024/01/10 10:38:39;;;;;;;3.55;1.63;;;;;;;18.41;32.32;102857.88;4986495;28;96803;-81
2024/01/10 10:41:11;;;;;;;3.15;1.73;;;;;;;18.42;32.19;102851.72;4989929;28;97208;-82
2024/01/10 10:43:38;;;;;;;3.95;1.80;;;;;;;18.42;32.41;102849.06;4986350;28;98575;-82
2024/01/10 10:46:09;;;;;;;4.40;1.80;;;;;;;18.42;32.25;102846.44;4991599;28;96947;-83
2024/01/10 10:48:35;;;;;;;3.40;1.88;;;;;;;18.43;32.20;102847.31;5002630;28;96682;-83
2024/01/10 10:51:06;;;;;;;3.92;1.98;;;;;;;18.44;32.29;102843.81;4969918;28;96750;-83
2024/01/10 10:53:37;;;;;;;11.57;1.85;;;;;;;18.43;32.25;102852.59;5004381;28;98014;-83
2024/01/10 10:56:04;;;;;;;3.13;1.85;;;;;;;18.43;32.18;102847.31;5020465;27;98090;-83
2024/01/10 10:58:36;;;;;;;3.38;1.98;;;;;;;18.42;32.41;102846.44;5002753;28;96751;-83
2024/01/10 11:01:09;;;;;;;6.13;2.35;;;;;;;18.43;32.27;102849.94;5008697;28;96692;-84
2024/01/10 11:03:37;;;;;;;3.88;1.65;;;;;;;18.43;32.24;102839.38;4999822;28;99178;-83
2024/01/10 11:06:04;;;;;;;5.65;2.45;;;;;;;18.43;32.06;102840.28;4988668;28;99119;-84
2024/01/10 11:08:37;;;;;;;3.42;1.80;;;;;;;18.44;32.04;102835.88;5020074;27;97045;-84
2024/01/10 11:11:19;;;;;;;3.65;2.22;;;;;;;18.42;32.20;102835.88;4970265;28;97347;-83
2024/01/10 11:14:01;;;;;;;3.25;2.40;;;;;;;18.42;32.36;102833.22;4964564;28;97467;-83
2024/01/10 11:16:53;;;;;;;3.67;1.92;;;;;;;18.41;32.32;102839.41;4987413;28;97577;-83
2024/01/10 11:19:51;;;;;;;3.70;1.55;;;;;;;18.41;32.02;102835.84;4982176;28;97678;-83